sensor_id;sensor_type;location;lat;lon;timestamp;P1;durP1;ratioP1;P2;durP2;ratioP2
43650;SDS011;29247;50.944;5.382;2023-06-14T00:01:03;6.53;;;5.25;;
43650;SDS011;29247;50.944;5.382;2023-06-14T00:03:31;7.38;;;4.47;;
43650;SDS011;29247;50.944;5.382;2023-06-14T00:05:59;5.15;;;4.30;;
43650;SDS011;29247;50.944;5.382;2023-06-14T00:08:25;7.60;;;4.70;;
43650;SDS011;29247;50.944;5.382;2023-06-14T00:10:50;4.55;;;3.92;;
43650;SDS011;29247;50.944;5.382;2023-06-14T00:13:16;8.80;;;4.53;;
43650;SDS011;29247;50.944;5.382;2023-06-14T00:15:42;7.13;;;5.25;;
43650;SDS011;29247;50.944;5.382;2023-06-14T00:18:10;6.13;;;5.05;;
43650;SDS011;29247;50.944;5.382;2023-06-14T00:20:36;8.73;;;4.88;;
43650;SDS011;29247;50.944;5.382;2023-06-14T00:23:06;10.00;;;4.43;;
43650;SDS011;29247;50.944;5.382;2023-06-14T00:25:32;5.18;;;4.60;;
43650;SDS011;29247;50.944;5.382;2023-06-14T00:27:58;6.07;;;5.05;;
43650;SDS011;29247;50.944;5.382;2023-06-14T00:30:23;6.63;;;4.72;;
43650;SDS011;29247;50.944;5.382;2023-06-14T00:32:49;8.45;;;4.95;;
43650;SDS011;29247;50.944;5.382;2023-06-14T00:35:18;10.73;;;5.05;;
43650;SDS011;29247;50.944;5.382;2023-06-14T00:37:46;8.02;;;5.10;;
43650;SDS011;29247;50.944;5.382;2023-06-14T00:40:12;6.65;;;4.60;;
43650;SDS011;29247;50.944;5.382;2023-06-14T00:42:38;5.95;;;5.15;;
43650;SDS011;29247;50.944;5.382;2023-06-14T00:45:07;6.47;;;5.10;;
43650;SDS011;29247;50.944;5.382;2023-06-14T00:47:36;4.90;;;4.25;;
43650;SDS011;29247;50.944;5.382;2023-06-14T00:50:06;4.97;;;4.47;;
43650;SDS011;29247;50.944;5.382;2023-06-14T00:52:35;5.63;;;4.57;;
43650;SDS011;29247;50.944;5.382;2023-06-14T00:55:01;5.28;;;4.78;;
43650;SDS011;29247;50.944;5.382;2023-06-14T00:57:27;5.57;;;5.03;;
43650;SDS011;29247;50.944;5.382;2023-06-14T00:59:54;8.02;;;4.47;;
43650;SDS011;29247;50.944;5.382;2023-06-14T01:02:20;5.53;;;3.92;;
43650;SDS011;29247;50.944;5.382;2023-06-14T01:04:47;6.25;;;4.88;;
43650;SDS011;29247;50.944;5.382;2023-06-14T01:15:14;7.60;;;4.95;;
43650;SDS011;29247;50.944;5.382;2023-06-14T01:17:45;8.57;;;4.90;;
43650;SDS011;29247;50.944;5.382;2023-06-14T01:20:16;9.80;;;5.50;;
43650;SDS011;29247;50.944;5.382;2023-06-14T01:22:53;5.85;;;5.25;;
43650;SDS011;29247;50.944;5.382;2023-06-14T01:25:24;5.93;;;4.93;;
43650;SDS011;29247;50.944;5.382;2023-06-14T01:27:55;5.05;;;4.55;;
43650;SDS011;29247;50.944;5.382;2023-06-14T01:30:23;6.63;;;4.75;;
43650;SDS011;29247;50.944;5.382;2023-06-14T01:32:54;6.55;;;4.90;;
43650;SDS011;29247;50.944;5.382;2023-06-14T01:35:21;6.70;;;5.00;;
43650;SDS011;29247;50.944;5.382;2023-06-14T01:37:50;4.88;;;4.40;;
43650;SDS011;29247;50.944;5.382;2023-06-14T01:40:18;6.15;;;5.07;;
43650;SDS011;29247;50.944;5.382;2023-06-14T01:42:45;6.70;;;4.47;;
43650;SDS011;29247;50.944;5.382;2023-06-14T01:45:13;5.75;;;4.80;;
43650;SDS011;29247;50.944;5.382;2023-06-14T01:47:40;7.22;;;5.38;;
43650;SDS011;29247;50.944;5.382;2023-06-14T01:50:06;5.72;;;4.60;;
43650;SDS011;29247;50.944;5.382;2023-06-14T01:52:33;6.95;;;4.95;;
43650;SDS011;29247;50.944;5.382;2023-06-14T01:54:58;8.43;;;4.63;;
43650;SDS011;29247;50.944;5.382;2023-06-14T01:57:27;9.02;;;4.97;;
43650;SDS011;29247;50.944;5.382;2023-06-14T01:59:58;6.30;;;4.88;;
43650;SDS011;29247;50.944;5.382;2023-06-14T02:02:24;7.07;;;5.50;;
43650;SDS011;29247;50.944;5.382;2023-06-14T02:04:50;6.68;;;5.30;;
43650;SDS011;29247;50.944;5.382;2023-06-14T02:07:17;10.00;;;5.15;;
43650;SDS011;29247;50.944;5.382;2023-06-14T02:09:43;4.72;;;4.28;;
43650;SDS011;29247;50.944;5.382;2023-06-14T02:12:09;8.60;;;5.72;;
43650;SDS011;29247;50.944;5.382;2023-06-14T02:14:35;6.35;;;5.50;;
43650;SDS011;29247;50.944;5.382;2023-06-14T02:17:06;9.93;;;5.72;;
43650;SDS011;29247;50.944;5.382;2023-06-14T02:19:35;9.02;;;5.00;;
43650;SDS011;29247;50.944;5.382;2023-06-14T02:22:00;8.23;;;5.10;;
43650;SDS011;29247;50.944;5.382;2023-06-14T02:24:29;9.63;;;5.65;;
43650;SDS011;29247;50.944;5.382;2023-06-14T02:26:58;7.35;;;6.00;;
43650;SDS011;29247;50.944;5.382;2023-06-14T02:29:25;8.98;;;6.40;;
43650;SDS011;29247;50.944;5.382;2023-06-14T02:31:53;6.43;;;5.60;;
43650;SDS011;29247;50.944;5.382;2023-06-14T02:34:23;9.73;;;6.13;;
43650;SDS011;29247;50.944;5.382;2023-06-14T02:36:49;5.85;;;5.25;;
43650;SDS011;29247;50.944;5.382;2023-06-14T02:39:14;7.45;;;4.97;;
43650;SDS011;29247;50.944;5.382;2023-06-14T02:41:41;8.07;;;5.22;;
43650;SDS011;29247;50.944;5.382;2023-06-14T02:44:07;7.10;;;5.30;;
43650;SDS011;29247;50.944;5.382;2023-06-14T02:46:35;9.63;;;6.15;;
43650;SDS011;29247;50.944;5.382;2023-06-14T02:49:01;9.25;;;6.35;;
43650;SDS011;29247;50.944;5.382;2023-06-14T02:51:27;7.22;;;6.07;;
43650;SDS011;29247;50.944;5.382;2023-06-14T02:53:52;5.97;;;5.15;;
43650;SDS011;29247;50.944;5.382;2023-06-14T02:56:18;6.68;;;5.97;;
43650;SDS011;29247;50.944;5.382;2023-06-14T02:58:44;8.60;;;5.90;;
43650;SDS011;29247;50.944;5.382;2023-06-14T03:01:09;7.10;;;5.55;;
43650;SDS011;29247;50.944;5.382;2023-06-14T03:03:39;10.63;;;5.75;;
43650;SDS011;29247;50.944;5.382;2023-06-14T03:06:06;8.73;;;5.30;;
43650;SDS011;29247;50.944;5.382;2023-06-14T03:08:38;6.18;;;5.28;;
43650;SDS011;29247;50.944;5.382;2023-06-14T03:11:07;7.00;;;6.30;;
43650;SDS011;29247;50.944;5.382;2023-06-14T03:13:36;9.15;;;6.43;;
43650;SDS011;29247;50.944;5.382;2023-06-14T03:16:03;6.90;;;6.13;;
43650;SDS011;29247;50.944;5.382;2023-06-14T03:18:29;8.70;;;5.43;;
43650;SDS011;29247;50.944;5.382;2023-06-14T03:21:00;8.63;;;5.97;;
43650;SDS011;29247;50.944;5.382;2023-06-14T03:23:29;7.72;;;5.90;;
43650;SDS011;29247;50.944;5.382;2023-06-14T03:25:57;8.52;;;5.78;;
43650;SDS011;29247;50.944;5.382;2023-06-14T03:28:23;7.47;;;5.97;;
43650;SDS011;29247;50.944;5.382;2023-06-14T03:30:51;7.28;;;4.97;;
43650;SDS011;29247;50.944;5.382;2023-06-14T03:33:19;7.38;;;5.95;;
43650;SDS011;29247;50.944;5.382;2023-06-14T03:35:50;6.00;;;5.38;;
43650;SDS011;29247;50.944;5.382;2023-06-14T03:38:18;6.75;;;5.57;;
43650;SDS011;29247;50.944;5.382;2023-06-14T03:40:44;9.32;;;6.45;;
43650;SDS011;29247;50.944;5.382;2023-06-14T03:43:10;8.57;;;5.03;;
43650;SDS011;29247;50.944;5.382;2023-06-14T03:45:38;6.65;;;5.63;;
43650;SDS011;29247;50.944;5.382;2023-06-14T03:48:03;6.68;;;5.85;;
43650;SDS011;29247;50.944;5.382;2023-06-14T03:50:33;5.60;;;5.00;;
43650;SDS011;29247;50.944;5.382;2023-06-14T03:52:59;7.80;;;5.03;;
43650;SDS011;29247;50.944;5.382;2023-06-14T03:55:26;8.18;;;5.60;;
43650;SDS011;29247;50.944;5.382;2023-06-14T03:57:56;7.65;;;5.75;;
43650;SDS011;29247;50.944;5.382;2023-06-14T04:00:23;7.38;;;5.57;;
43650;SDS011;29247;50.944;5.382;2023-06-14T04:02:48;8.07;;;5.75;;
43650;SDS011;29247;50.944;5.382;2023-06-14T04:05:15;10.80;;;5.82;;
43650;SDS011;29247;50.944;5.382;2023-06-14T04:07:42;7.53;;;5.85;;
43650;SDS011;29247;50.944;5.382;2023-06-14T04:10:09;6.47;;;5.68;;
43650;SDS011;29247;50.944;5.382;2023-06-14T04:12:38;7.45;;;5.30;;
43650;SDS011;29247;50.944;5.382;2023-06-14T04:17:33;8.30;;;5.47;;
43650;SDS011;29247;50.944;5.382;2023-06-14T04:19:59;10.23;;;5.40;;
43650;SDS011;29247;50.944;5.382;2023-06-14T04:22:29;8.00;;;6.05;;
43650;SDS011;29247;50.944;5.382;2023-06-14T04:24:58;8.48;;;5.82;;
43650;SDS011;29247;50.944;5.382;2023-06-14T04:27:24;8.70;;;5.72;;
43650;SDS011;29247;50.944;5.382;2023-06-14T04:29:54;7.65;;;5.70;;
43650;SDS011;29247;50.944;5.382;2023-06-14T04:32:27;5.80;;;4.80;;
43650;SDS011;29247;50.944;5.382;2023-06-14T04:34:54;10.05;;;5.40;;
43650;SDS011;29247;50.944;5.382;2023-06-14T04:37:21;10.07;;;6.22;;
43650;SDS011;29247;50.944;5.382;2023-06-14T04:39:47;6.50;;;5.85;;
43650;SDS011;29247;50.944;5.382;2023-06-14T04:42:16;11.50;;;5.78;;
43650;SDS011;29247;50.944;5.382;2023-06-14T04:44:45;8.68;;;5.05;;
43650;SDS011;29247;50.944;5.382;2023-06-14T04:47:12;7.15;;;5.60;;
43650;SDS011;29247;50.944;5.382;2023-06-14T04:49:39;8.18;;;5.72;;
43650;SDS011;29247;50.944;5.382;2023-06-14T04:52:07;7.97;;;5.10;;
43650;SDS011;29247;50.944;5.382;2023-06-14T04:54:36;10.63;;;5.03;;
43650;SDS011;29247;50.944;5.382;2023-06-14T04:57:07;8.32;;;5.75;;
43650;SDS011;29247;50.944;5.382;2023-06-14T04:59:34;8.10;;;5.90;;
43650;SDS011;29247;50.944;5.382;2023-06-14T05:02:00;7.93;;;5.78;;
43650;SDS011;29247;50.944;5.382;2023-06-14T05:04:26;12.02;;;7.30;;
43650;SDS011;29247;50.944;5.382;2023-06-14T05:06:53;8.95;;;6.03;;
43650;SDS011;29247;50.944;5.382;2023-06-14T05:09:24;7.40;;;5.63;;
43650;SDS011;29247;50.944;5.382;2023-06-14T05:11:50;10.68;;;5.93;;
43650;SDS011;29247;50.944;5.382;2023-06-14T05:14:15;7.30;;;5.78;;
43650;SDS011;29247;50.944;5.382;2023-06-14T05:16:42;7.90;;;5.80;;
43650;SDS011;29247;50.944;5.382;2023-06-14T05:19:08;8.25;;;5.32;;
43650;SDS011;29247;50.944;5.382;2023-06-14T05:21:35;7.82;;;5.60;;
43650;SDS011;29247;50.944;5.382;2023-06-14T05:24:02;11.40;;;5.20;;
43650;SDS011;29247;50.944;5.382;2023-06-14T05:26:28;11.63;;;6.53;;
43650;SDS011;29247;50.944;5.382;2023-06-14T05:28:59;6.93;;;5.30;;
43650;SDS011;29247;50.944;5.382;2023-06-14T05:31:28;9.02;;;5.93;;
43650;SDS011;29247;50.944;5.382;2023-06-14T05:33:56;8.65;;;6.05;;
43650;SDS011;29247;50.944;5.382;2023-06-14T05:36:22;10.05;;;6.45;;
43650;SDS011;29247;50.944;5.382;2023-06-14T05:38:48;8.57;;;5.90;;
43650;SDS011;29247;50.944;5.382;2023-06-14T05:41:13;8.45;;;5.32;;
43650;SDS011;29247;50.944;5.382;2023-06-14T05:43:41;9.50;;;6.22;;
43650;SDS011;29247;50.944;5.382;2023-06-14T05:46:07;7.22;;;5.60;;
43650;SDS011;29247;50.944;5.382;2023-06-14T05:48:34;8.98;;;5.75;;
43650;SDS011;29247;50.944;5.382;2023-06-14T05:51:00;8.25;;;6.00;;
43650;SDS011;29247;50.944;5.382;2023-06-14T05:53:25;6.68;;;4.93;;
43650;SDS011;29247;50.944;5.382;2023-06-14T05:55:52;7.40;;;5.63;;
43650;SDS011;29247;50.944;5.382;2023-06-14T06:00:50;8.52;;;5.57;;
43650;SDS011;29247;50.944;5.382;2023-06-14T06:03:18;7.60;;;6.05;;
43650;SDS011;29247;50.944;5.382;2023-06-14T06:05:46;8.43;;;5.70;;
43650;SDS011;29247;50.944;5.382;2023-06-14T06:08:12;8.77;;;6.47;;
43650;SDS011;29247;50.944;5.382;2023-06-14T06:10:38;6.65;;;5.32;;
43650;SDS011;29247;50.944;5.382;2023-06-14T06:13:04;9.07;;;5.85;;
43650;SDS011;29247;50.944;5.382;2023-06-14T06:15:30;8.80;;;5.30;;
43650;SDS011;29247;50.944;5.382;2023-06-14T06:17:56;7.55;;;5.55;;
43650;SDS011;29247;50.944;5.382;2023-06-14T06:20:25;6.05;;;4.38;;
43650;SDS011;29247;50.944;5.382;2023-06-14T06:25:22;5.63;;;4.78;;
43650;SDS011;29247;50.944;5.382;2023-06-14T06:28:15;7.47;;;6.05;;
43650;SDS011;29247;50.944;5.382;2023-06-14T06:30:47;6.85;;;5.53;;
43650;SDS011;29247;50.944;5.382;2023-06-14T06:33:16;5.93;;;4.95;;
43650;SDS011;29247;50.944;5.382;2023-06-14T06:35:44;8.77;;;5.63;;
43650;SDS011;29247;50.944;5.382;2023-06-14T06:38:16;8.32;;;5.30;;
43650;SDS011;29247;50.944;5.382;2023-06-14T06:40:45;7.57;;;5.45;;
43650;SDS011;29247;50.944;5.382;2023-06-14T06:43:14;5.45;;;4.95;;
43650;SDS011;29247;50.944;5.382;2023-06-14T06:45:44;8.25;;;6.22;;
43650;SDS011;29247;50.944;5.382;2023-06-14T06:48:13;9.05;;;5.85;;
43650;SDS011;29247;50.944;5.382;2023-06-14T06:50:39;6.55;;;5.20;;
43650;SDS011;29247;50.944;5.382;2023-06-14T06:53:09;10.13;;;5.60;;
43650;SDS011;29247;50.944;5.382;2023-06-14T06:55:35;9.55;;;5.82;;
43650;SDS011;29247;50.944;5.382;2023-06-14T06:58:01;16.45;;;6.68;;
43650;SDS011;29247;50.944;5.382;2023-06-14T07:00:32;8.30;;;5.22;;
43650;SDS011;29247;50.944;5.382;2023-06-14T07:02:59;10.98;;;4.35;;
43650;SDS011;29247;50.944;5.382;2023-06-14T07:05:26;13.13;;;4.78;;
43650;SDS011;29247;50.944;5.382;2023-06-14T07:07:54;10.02;;;4.68;;
43650;SDS011;29247;50.944;5.382;2023-06-14T07:10:22;5.60;;;5.03;;
43650;SDS011;29247;50.944;5.382;2023-06-14T07:12:49;7.72;;;5.22;;
43650;SDS011;29247;50.944;5.382;2023-06-14T07:15:15;5.63;;;4.35;;
43650;SDS011;29247;50.944;5.382;2023-06-14T07:17:42;10.60;;;5.03;;
43650;SDS011;29247;50.944;5.382;2023-06-14T07:20:08;7.32;;;4.93;;
43650;SDS011;29247;50.944;5.382;2023-06-14T07:22:42;7.68;;;4.05;;
43650;SDS011;29247;50.944;5.382;2023-06-14T07:25:13;10.88;;;4.15;;
43650;SDS011;29247;50.944;5.382;2023-06-14T07:27:39;5.95;;;4.57;;
43650;SDS011;29247;50.944;5.382;2023-06-14T07:30:06;8.25;;;5.60;;
43650;SDS011;29247;50.944;5.382;2023-06-14T07:32:33;7.82;;;4.85;;
43650;SDS011;29247;50.944;5.382;2023-06-14T07:35:00;8.20;;;5.25;;
43650;SDS011;29247;50.944;5.382;2023-06-14T07:37:26;10.57;;;5.25;;
43650;SDS011;29247;50.944;5.382;2023-06-14T07:39:52;6.70;;;4.45;;
43650;SDS011;29247;50.944;5.382;2023-06-14T07:42:18;6.50;;;4.18;;
43650;SDS011;29247;50.944;5.382;2023-06-14T07:44:44;8.70;;;4.60;;
43650;SDS011;29247;50.944;5.382;2023-06-14T07:47:10;5.60;;;5.03;;
43650;SDS011;29247;50.944;5.382;2023-06-14T07:49:36;7.53;;;4.43;;
43650;SDS011;29247;50.944;5.382;2023-06-14T07:52:04;7.95;;;4.45;;
43650;SDS011;29247;50.944;5.382;2023-06-14T07:54:32;8.68;;;4.78;;
43650;SDS011;29247;50.944;5.382;2023-06-14T07:57:03;8.27;;;5.50;;
43650;SDS011;29247;50.944;5.382;2023-06-14T07:59:29;5.97;;;5.07;;
43650;SDS011;29247;50.944;5.382;2023-06-14T08:01:57;5.43;;;4.90;;
43650;SDS011;29247;50.944;5.382;2023-06-14T08:04:23;5.75;;;5.18;;
43650;SDS011;29247;50.944;5.382;2023-06-14T08:06:50;5.40;;;4.88;;
43650;SDS011;29247;50.944;5.382;2023-06-14T08:09:16;5.20;;;4.32;;
43650;SDS011;29247;50.944;5.382;2023-06-14T08:11:42;5.50;;;4.65;;
43650;SDS011;29247;50.944;5.382;2023-06-14T08:14:08;6.18;;;4.38;;
43650;SDS011;29247;50.944;5.382;2023-06-14T08:16:37;8.05;;;4.03;;
43650;SDS011;29247;50.944;5.382;2023-06-14T08:19:05;6.50;;;4.40;;
43650;SDS011;29247;50.944;5.382;2023-06-14T08:21:31;5.97;;;4.78;;
43650;SDS011;29247;50.944;5.382;2023-06-14T08:23:58;5.70;;;5.05;;
43650;SDS011;29247;50.944;5.382;2023-06-14T08:26:25;7.53;;;4.55;;
43650;SDS011;29247;50.944;5.382;2023-06-14T08:28:56;7.50;;;4.10;;
43650;SDS011;29247;50.944;5.382;2023-06-14T08:31:25;9.88;;;4.25;;
43650;SDS011;29247;50.944;5.382;2023-06-14T08:33:55;6.50;;;3.28;;
43650;SDS011;29247;50.944;5.382;2023-06-14T08:36:25;10.75;;;4.45;;
43650;SDS011;29247;50.944;5.382;2023-06-14T08:38:51;6.22;;;3.95;;
43650;SDS011;29247;50.944;5.382;2023-06-14T08:41:20;8.02;;;4.50;;
43650;SDS011;29247;50.944;5.382;2023-06-14T08:43:51;8.68;;;3.35;;
43650;SDS011;29247;50.944;5.382;2023-06-14T08:46:20;6.25;;;3.67;;
43650;SDS011;29247;50.944;5.382;2023-06-14T08:48:48;8.48;;;3.95;;
43650;SDS011;29247;50.944;5.382;2023-06-14T08:51:16;5.57;;;4.13;;
43650;SDS011;29247;50.944;5.382;2023-06-14T08:53:47;7.38;;;3.85;;
43650;SDS011;29247;50.944;5.382;2023-06-14T08:56:17;4.72;;;3.50;;
43650;SDS011;29247;50.944;5.382;2023-06-14T08:58:46;8.38;;;4.25;;
43650;SDS011;29247;50.944;5.382;2023-06-14T09:01:14;6.85;;;3.35;;
43650;SDS011;29247;50.944;5.382;2023-06-14T09:03:42;8.07;;;3.30;;
43650;SDS011;29247;50.944;5.382;2023-06-14T09:06:09;7.00;;;3.60;;
43650;SDS011;29247;50.944;5.382;2023-06-14T09:08:47;3.67;;;2.80;;
43650;SDS011;29247;50.944;5.382;2023-06-14T09:11:16;6.60;;;3.42;;
43650;SDS011;29247;50.944;5.382;2023-06-14T09:13:44;4.75;;;3.63;;
43650;SDS011;29247;50.944;5.382;2023-06-14T09:16:11;6.80;;;3.25;;
43650;SDS011;29247;50.944;5.382;2023-06-14T09:18:37;3.60;;;3.20;;
43650;SDS011;29247;50.944;5.382;2023-06-14T09:21:08;4.15;;;2.47;;
43650;SDS011;29247;50.944;5.382;2023-06-14T09:23:38;6.15;;;3.75;;
43650;SDS011;29247;50.944;5.382;2023-06-14T09:28:44;7.60;;;2.97;;
43650;SDS011;29247;50.944;5.382;2023-06-14T09:31:19;8.25;;;2.70;;
43650;SDS011;29247;50.944;5.382;2023-06-14T09:33:49;4.57;;;2.75;;
43650;SDS011;29247;50.944;5.382;2023-06-14T09:36:16;5.30;;;3.17;;
43650;SDS011;29247;50.944;5.382;2023-06-14T09:38:51;6.68;;;2.50;;
43650;SDS011;29247;50.944;5.382;2023-06-14T09:41:18;6.45;;;2.70;;
43650;SDS011;29247;50.944;5.382;2023-06-14T09:43:57;4.78;;;2.53;;
43650;SDS011;29247;50.944;5.382;2023-06-14T09:46:26;7.15;;;2.90;;
43650;SDS011;29247;50.944;5.382;2023-06-14T09:48:52;3.88;;;2.38;;
43650;SDS011;29247;50.944;5.382;2023-06-14T09:51:18;3.75;;;2.70;;
43650;SDS011;29247;50.944;5.382;2023-06-14T09:53:47;2.97;;;2.47;;
43650;SDS011;29247;50.944;5.382;2023-06-14T09:56:15;5.82;;;2.10;;
43650;SDS011;29247;50.944;5.382;2023-06-14T09:59:04;5.32;;;2.10;;
43650;SDS011;29247;50.944;5.382;2023-06-14T10:04:02;3.85;;;2.80;;
43650;SDS011;29247;50.944;5.382;2023-06-14T10:06:32;7.22;;;2.83;;
43650;SDS011;29247;50.944;5.382;2023-06-14T10:09:07;3.78;;;2.35;;
43650;SDS011;29247;50.944;5.382;2023-06-14T10:11:34;6.72;;;2.72;;
43650;SDS011;29247;50.944;5.382;2023-06-14T10:14:01;3.83;;;2.33;;
43650;SDS011;29247;50.944;5.382;2023-06-14T10:25:12;2.97;;;1.95;;
43650;SDS011;29247;50.944;5.382;2023-06-14T10:27:51;3.72;;;2.08;;
43650;SDS011;29247;50.944;5.382;2023-06-14T10:30:16;7.88;;;2.50;;
43650;SDS011;29247;50.944;5.382;2023-06-14T10:33:03;6.07;;;2.75;;
43650;SDS011;29247;50.944;5.382;2023-06-14T10:35:31;5.45;;;2.30;;
43650;SDS011;29247;50.944;5.382;2023-06-14T10:38:11;4.10;;;2.33;;
43650;SDS011;29247;50.944;5.382;2023-06-14T10:43:23;4.05;;;2.67;;
43650;SDS011;29247;50.944;5.382;2023-06-14T10:46:13;6.30;;;2.53;;
43650;SDS011;29247;50.944;5.382;2023-06-14T10:48:45;3.08;;;2.38;;
43650;SDS011;29247;50.944;5.382;2023-06-14T10:51:20;7.28;;;2.72;;
43650;SDS011;29247;50.944;5.382;2023-06-14T10:53:49;8.50;;;2.15;;
43650;SDS011;29247;50.944;5.382;2023-06-14T10:56:30;4.10;;;2.60;;
43650;SDS011;29247;50.944;5.382;2023-06-14T10:59:00;2.83;;;2.30;;
43650;SDS011;29247;50.944;5.382;2023-06-14T11:01:35;3.10;;;2.22;;
43650;SDS011;29247;50.944;5.382;2023-06-14T11:04:09;3.08;;;2.40;;
43650;SDS011;29247;50.944;5.382;2023-06-14T11:06:49;3.47;;;1.80;;
43650;SDS011;29247;50.944;5.382;2023-06-14T11:09:34;3.40;;;2.33;;
43650;SDS011;29247;50.944;5.382;2023-06-14T11:12:11;5.00;;;1.55;;
43650;SDS011;29247;50.944;5.382;2023-06-14T11:14:38;2.83;;;1.50;;
43650;SDS011;29247;50.944;5.382;2023-06-14T11:17:07;1.60;;;1.30;;
43650;SDS011;29247;50.944;5.382;2023-06-14T11:19:37;2.00;;;1.55;;
43650;SDS011;29247;50.944;5.382;2023-06-14T11:22:02;2.25;;;1.50;;
43650;SDS011;29247;50.944;5.382;2023-06-14T11:24:28;2.75;;;1.40;;
43650;SDS011;29247;50.944;5.382;2023-06-14T11:26:55;2.83;;;1.30;;
43650;SDS011;29247;50.944;5.382;2023-06-14T11:29:23;3.80;;;1.30;;
43650;SDS011;29247;50.944;5.382;2023-06-14T11:31:50;1.98;;;1.50;;
43650;SDS011;29247;50.944;5.382;2023-06-14T11:34:21;2.42;;;1.10;;
43650;SDS011;29247;50.944;5.382;2023-06-14T11:36:47;1.40;;;1.10;;
43650;SDS011;29247;50.944;5.382;2023-06-14T11:39:15;1.33;;;1.23;;
43650;SDS011;29247;50.944;5.382;2023-06-14T11:41:42;2.92;;;1.05;;
43650;SDS011;29247;50.944;5.382;2023-06-14T11:44:12;5.18;;;1.45;;
43650;SDS011;29247;50.944;5.382;2023-06-14T11:46:42;2.42;;;1.10;;
43650;SDS011;29247;50.944;5.382;2023-06-14T11:49:09;2.08;;;1.13;;
43650;SDS011;29247;50.944;5.382;2023-06-14T11:51:37;3.72;;;1.20;;
43650;SDS011;29247;50.944;5.382;2023-06-14T11:54:04;1.60;;;1.20;;
43650;SDS011;29247;50.944;5.382;2023-06-14T11:56:31;1.90;;;1.02;;
43650;SDS011;29247;50.944;5.382;2023-06-14T11:58:57;3.60;;;1.23;;
43650;SDS011;29247;50.944;5.382;2023-06-14T12:01:30;1.65;;;1.10;;
43650;SDS011;29247;50.944;5.382;2023-06-14T12:03:56;4.88;;;1.23;;
43650;SDS011;29247;50.944;5.382;2023-06-14T12:06:27;2.65;;;1.40;;
43650;SDS011;29247;50.944;5.382;2023-06-14T12:09:03;5.28;;;1.00;;
43650;SDS011;29247;50.944;5.382;2023-06-14T12:11:32;1.33;;;1.10;;
43650;SDS011;29247;50.944;5.382;2023-06-14T12:13:59;1.40;;;1.25;;
43650;SDS011;29247;50.944;5.382;2023-06-14T12:16:36;2.20;;;1.50;;
43650;SDS011;29247;50.944;5.382;2023-06-14T12:21:41;2.15;;;1.05;;
43650;SDS011;29247;50.944;5.382;2023-06-14T12:24:11;4.88;;;1.75;;
43650;SDS011;29247;50.944;5.382;2023-06-14T12:26:37;3.80;;;1.37;;
43650;SDS011;29247;50.944;5.382;2023-06-14T12:29:05;1.60;;;1.27;;
43650;SDS011;29247;50.944;5.382;2023-06-14T12:31:35;3.67;;;1.25;;
43650;SDS011;29247;50.944;5.382;2023-06-14T12:34:01;2.78;;;1.52;;
43650;SDS011;29247;50.944;5.382;2023-06-14T12:36:26;2.78;;;1.58;;
43650;SDS011;29247;50.944;5.382;2023-06-14T12:38:57;2.17;;;1.50;;
43650;SDS011;29247;50.944;5.382;2023-06-14T12:41:22;1.90;;;1.70;;
43650;SDS011;29247;50.944;5.382;2023-06-14T12:43:52;2.35;;;1.23;;
43650;SDS011;29247;50.944;5.382;2023-06-14T12:46:20;3.72;;;1.60;;
43650;SDS011;29247;50.944;5.382;2023-06-14T12:48:46;3.45;;;1.40;;
43650;SDS011;29247;50.944;5.382;2023-06-14T12:51:11;4.65;;;1.45;;
43650;SDS011;29247;50.944;5.382;2023-06-14T12:53:37;3.30;;;1.23;;
43650;SDS011;29247;50.944;5.382;2023-06-14T12:56:02;1.92;;;1.25;;
43650;SDS011;29247;50.944;5.382;2023-06-14T12:58:30;3.20;;;1.40;;
43650;SDS011;29247;50.944;5.382;2023-06-14T13:00:56;4.82;;;1.30;;
43650;SDS011;29247;50.944;5.382;2023-06-14T13:03:22;2.63;;;1.55;;
43650;SDS011;29247;50.944;5.382;2023-06-14T13:05:48;3.33;;;1.23;;
43650;SDS011;29247;50.944;5.382;2023-06-14T13:08:14;2.75;;;1.55;;
43650;SDS011;29247;50.944;5.382;2023-06-14T13:10:39;1.35;;;1.10;;
43650;SDS011;29247;50.944;5.382;2023-06-14T13:13:05;4.50;;;1.40;;
43650;SDS011;29247;50.944;5.382;2023-06-14T13:15:35;1.45;;;1.20;;
43650;SDS011;29247;50.944;5.382;2023-06-14T13:18:01;2.30;;;1.50;;
43650;SDS011;29247;50.944;5.382;2023-06-14T13:20:28;5.32;;;1.27;;
43650;SDS011;29247;50.944;5.382;2023-06-14T13:22:54;2.25;;;1.17;;
43650;SDS011;29247;50.944;5.382;2023-06-14T13:25:22;2.08;;;1.40;;
43650;SDS011;29247;50.944;5.382;2023-06-14T13:27:50;3.38;;;1.55;;
43650;SDS011;29247;50.944;5.382;2023-06-14T13:30:18;2.80;;;1.70;;
43650;SDS011;29247;50.944;5.382;2023-06-14T13:32:47;1.98;;;1.40;;
43650;SDS011;29247;50.944;5.382;2023-06-14T13:35:16;5.20;;;1.40;;
43650;SDS011;29247;50.944;5.382;2023-06-14T13:37:45;3.22;;;1.45;;
43650;SDS011;29247;50.944;5.382;2023-06-14T13:40:11;3.80;;;1.38;;
43650;SDS011;29247;50.944;5.382;2023-06-14T13:42:39;3.35;;;1.30;;
43650;SDS011;29247;50.944;5.382;2023-06-14T13:45:05;1.30;;;1.20;;
43650;SDS011;29247;50.944;5.382;2023-06-14T13:47:37;3.28;;;1.60;;
43650;SDS011;29247;50.944;5.382;2023-06-14T13:50:06;2.17;;;1.65;;
43650;SDS011;29247;50.944;5.382;2023-06-14T13:52:32;2.72;;;1.30;;
43650;SDS011;29247;50.944;5.382;2023-06-14T13:55:00;1.45;;;1.20;;
43650;SDS011;29247;50.944;5.382;2023-06-14T13:57:32;1.15;;;1.05;;
43650;SDS011;29247;50.944;5.382;2023-06-14T13:59:58;2.75;;;1.30;;
43650;SDS011;29247;50.944;5.382;2023-06-14T14:02:27;4.45;;;1.38;;
43650;SDS011;29247;50.944;5.382;2023-06-14T14:04:59;1.50;;;1.23;;
43650;SDS011;29247;50.944;5.382;2023-06-14T14:07:26;2.42;;;1.52;;
43650;SDS011;29247;50.944;5.382;2023-06-14T14:09:55;2.08;;;1.20;;
43650;SDS011;29247;50.944;5.382;2023-06-14T14:12:22;1.63;;;1.33;;
43650;SDS011;29247;50.944;5.382;2023-06-14T14:14:49;6.45;;;1.77;;
43650;SDS011;29247;50.944;5.382;2023-06-14T14:17:15;2.13;;;1.60;;
43650;SDS011;29247;50.944;5.382;2023-06-14T14:19:43;2.88;;;1.35;;
43650;SDS011;29247;50.944;5.382;2023-06-14T14:22:11;3.13;;;1.38;;
43650;SDS011;29247;50.944;5.382;2023-06-14T14:24:39;1.50;;;1.35;;
43650;SDS011;29247;50.944;5.382;2023-06-14T14:27:07;5.00;;;1.40;;
43650;SDS011;29247;50.944;5.382;2023-06-14T14:29:33;2.60;;;1.33;;
43650;SDS011;29247;50.944;5.382;2023-06-14T14:31:59;2.88;;;1.17;;
43650;SDS011;29247;50.944;5.382;2023-06-14T14:34:27;1.98;;;1.30;;
43650;SDS011;29247;50.944;5.382;2023-06-14T14:36:53;1.88;;;1.33;;
43650;SDS011;29247;50.944;5.382;2023-06-14T14:39:24;1.50;;;1.20;;
43650;SDS011;29247;50.944;5.382;2023-06-14T14:41:50;4.22;;;1.40;;
43650;SDS011;29247;50.944;5.382;2023-06-14T14:44:18;1.25;;;1.15;;
43650;SDS011;29247;50.944;5.382;2023-06-14T14:46:47;4.35;;;1.05;;
43650;SDS011;29247;50.944;5.382;2023-06-14T14:49:15;1.30;;;1.20;;
43650;SDS011;29247;50.944;5.382;2023-06-14T14:51:41;2.10;;;1.00;;
43650;SDS011;29247;50.944;5.382;2023-06-14T14:54:09;4.05;;;1.15;;
43650;SDS011;29247;50.944;5.382;2023-06-14T14:56:39;5.43;;;1.80;;
43650;SDS011;29247;50.944;5.382;2023-06-14T14:59:05;2.22;;;1.10;;
43650;SDS011;29247;50.944;5.382;2023-06-14T15:01:34;2.80;;;1.30;;
43650;SDS011;29247;50.944;5.382;2023-06-14T15:04:04;1.77;;;1.00;;
43650;SDS011;29247;50.944;5.382;2023-06-14T15:06:30;3.13;;;1.20;;
43650;SDS011;29247;50.944;5.382;2023-06-14T15:08:56;2.20;;;1.45;;
43650;SDS011;29247;50.944;5.382;2023-06-14T15:11:22;2.55;;;0.90;;
43650;SDS011;29247;50.944;5.382;2023-06-14T15:13:53;1.67;;;1.10;;
43650;SDS011;29247;50.944;5.382;2023-06-14T15:16:20;5.18;;;1.40;;
43650;SDS011;29247;50.944;5.382;2023-06-14T15:18:46;1.83;;;1.17;;
43650;SDS011;29247;50.944;5.382;2023-06-14T15:21:17;1.30;;;1.20;;
43650;SDS011;29247;50.944;5.382;2023-06-14T15:23:45;2.72;;;1.05;;
43650;SDS011;29247;50.944;5.382;2023-06-14T15:26:11;1.88;;;1.25;;
43650;SDS011;29247;50.944;5.382;2023-06-14T15:28:36;1.70;;;1.00;;